sensor_id;sensor_type;location;lat;lon;timestamp;pressure;altitude;pressure_sealevel;temperature;humidity
75424;BME280;64005;55.160;36.002;2022-11-15T00:00:17;99894.56;;;-4.07;70.81
75424;BME280;64005;55.160;36.002;2022-11-15T00:02:43;99883.09;;;-4.09;70.88
75424;BME280;64005;55.160;36.002;2022-11-15T00:05:09;99882.41;;;-4.05;70.61
75424;BME280;64005;55.160;36.002;2022-11-15T00:07:35;99880.47;;;-3.97;70.89
75424;BME280;64005;55.160;36.002;2022-11-15T00:10:00;99865.47;;;-4.00;70.89
75424;BME280;64005;55.160;36.002;2022-11-15T00:12:27;99872.28;;;-3.91;70.33
75424;BME280;64005;55.160;36.002;2022-11-15T00:14:54;99872.28;;;-3.91;70.82
75424;BME280;64005;55.160;36.002;2022-11-15T00:17:20;99874.09;;;-3.85;70.91
75424;BME280;64005;55.160;36.002;2022-11-15T00:19:45;99879.94;;;-3.81;70.75
75424;BME280;64005;55.160;36.002;2022-11-15T00:22:11;99868.25;;;-3.82;70.66
75424;BME280;64005;55.160;36.002;2022-11-15T00:24:37;99864.69;;;-3.82;70.72
75424;BME280;64005;55.160;36.002;2022-11-15T00:27:03;99864.69;;;-3.82;70.69
75424;BME280;64005;55.160;36.002;2022-11-15T00:29:28;99871.13;;;-3.77;70.78
75424;BME280;64005;55.160;36.002;2022-11-15T00:31:54;99862.75;;;-3.75;70.57
75424;BME280;64005;55.160;36.002;2022-11-15T00:34:20;99859.75;;;-3.67;70.81
75424;BME280;64005;55.160;36.002;2022-11-15T00:36:46;99857.63;;;-3.65;70.86
75424;BME280;64005;55.160;36.002;2022-11-15T00:39:12;99854.84;;;-3.58;70.69
75424;BME280;64005;55.160;36.002;2022-11-15T00:41:37;99853.56;;;-3.56;70.82
75424;BME280;64005;55.160;36.002;2022-11-15T00:44:03;99853.97;;;-3.52;70.86
75424;BME280;64005;55.160;36.002;2022-11-15T00:46:29;99847.84;;;-3.48;70.80
75424;BME280;64005;55.160;36.002;2022-11-15T00:48:55;99845.28;;;-3.43;70.73
75424;BME280;64005;55.160;36.002;2022-11-15T00:51:21;99830.34;;;-3.34;70.40
75424;BME280;64005;55.160;36.002;2022-11-15T00:53:46;99824.22;;;-3.29;70.58
75424;BME280;64005;55.160;36.002;2022-11-15T00:56:12;99833.00;;;-3.27;70.69
75424;BME280;64005;55.160;36.002;2022-11-15T00:58:38;99831.03;;;-3.20;70.56
75424;BME280;64005;55.160;36.002;2022-11-15T01:01:12;99840.41;;;-3.16;70.67
75424;BME280;64005;55.160;36.002;2022-11-15T01:03:40;99831.53;;;-3.11;70.69
75424;BME280;64005;55.160;36.002;2022-11-15T01:06:09;99836.06;;;-3.05;70.61
75424;BME280;64005;55.160;36.002;2022-11-15T01:08:36;99832.47;;;-2.99;70.34
75424;BME280;64005;55.160;36.002;2022-11-15T01:11:10;99847.28;;;-2.95;70.61
75424;BME280;64005;55.160;36.002;2022-11-15T01:13:38;99844.06;;;-2.92;70.52
75424;BME280;64005;55.160;36.002;2022-11-15T01:16:13;99832.31;;;-2.86;70.40
75424;BME280;64005;55.160;36.002;2022-11-15T01:18:40;99826.38;;;-2.83;70.34
75424;BME280;64005;55.160;36.002;2022-11-15T01:21:10;99825.03;;;-2.74;70.57
75424;BME280;64005;55.160;36.002;2022-11-15T01:23:36;99824.94;;;-2.67;70.60
75424;BME280;64005;55.160;36.002;2022-11-15T01:26:04;99825.91;;;-2.62;70.61
75424;BME280;64005;55.160;36.002;2022-11-15T01:28:35;99829.59;;;-2.56;70.48
75424;BME280;64005;55.160;36.002;2022-11-15T01:31:03;99824.03;;;-2.50;70.28
75424;BME280;64005;55.160;36.002;2022-11-15T01:33:30;99822.50;;;-2.46;70.12
75424;BME280;64005;55.160;36.002;2022-11-15T01:35:56;99823.94;;;-2.43;70.39
75424;BME280;64005;55.160;36.002;2022-11-15T01:38:22;99822.66;;;-2.41;70.28
75424;BME280;64005;55.160;36.002;2022-11-15T01:40:48;99827.19;;;-2.34;70.14
75424;BME280;64005;55.160;36.002;2022-11-15T01:43:19;99813.78;;;-2.36;69.70
75424;BME280;64005;55.160;36.002;2022-11-15T01:45:51;99824.94;;;-2.26;69.99
75424;BME280;64005;55.160;36.002;2022-11-15T01:48:19;99811.31;;;-2.26;69.74
75424;BME280;64005;55.160;36.002;2022-11-15T01:50:45;99788.19;;;-2.35;70.63
75424;BME280;64005;55.160;36.002;2022-11-15T01:53:12;99813.69;;;-2.18;70.32
75424;BME280;64005;55.160;36.002;2022-11-15T01:55:38;99800.47;;;-2.14;70.50
75424;BME280;64005;55.160;36.002;2022-11-15T01:58:05;99811.59;;;-2.16;70.61
75424;BME280;64005;55.160;36.002;2022-11-15T02:00:33;99809.47;;;-2.14;70.74
75424;BME280;64005;55.160;36.002;2022-11-15T02:02:59;99804.47;;;-2.17;70.66
75424;BME280;64005;55.160;36.002;2022-11-15T02:05:25;99797.72;;;-2.14;69.99
75424;BME280;64005;55.160;36.002;2022-11-15T02:07:51;99790.50;;;-2.09;70.63
75424;BME280;64005;55.160;36.002;2022-11-15T02:10:19;99791.13;;;-2.07;70.65
75424;BME280;64005;55.160;36.002;2022-11-15T02:12:46;99778.53;;;-2.08;70.50
75424;BME280;64005;55.160;36.002;2022-11-15T02:15:13;99772.59;;;-2.05;70.46
75424;BME280;64005;55.160;36.002;2022-11-15T02:23:41;99776.66;;;-2.07;70.49
75424;BME280;64005;55.160;36.002;2022-11-15T02:32:09;99753.19;;;-2.08;70.25
75424;BME280;64005;55.160;36.002;2022-11-15T02:37:42;99751.97;;;-2.12;70.18
75424;BME280;64005;55.160;36.002;2022-11-15T02:42:50;99743.06;;;-2.19;70.81
75424;BME280;64005;55.160;36.002;2022-11-15T02:45:40;99716.41;;;-2.41;71.03
75424;BME280;64005;55.160;36.002;2022-11-15T02:48:07;99739.88;;;-2.28;71.17
75424;BME280;64005;55.160;36.002;2022-11-15T02:50:35;99743.19;;;-2.26;71.21
75424;BME280;64005;55.160;36.002;2022-11-15T02:53:01;99745.34;;;-2.28;71.33
75424;BME280;64005;55.160;36.002;2022-11-15T02:55:45;99735.13;;;-2.32;70.77
75424;BME280;64005;55.160;36.002;2022-11-15T03:04:27;99714.13;;;-2.55;71.76
75424;BME280;64005;55.160;36.002;2022-11-15T03:07:11;99706.66;;;-2.60;71.56
75424;BME280;64005;55.160;36.002;2022-11-15T03:10:03;99696.22;;;-2.63;71.16
75424;BME280;64005;55.160;36.002;2022-11-15T03:13:00;99685.78;;;-2.66;71.52
75424;BME280;64005;55.160;36.002;2022-11-15T03:15:38;99693.16;;;-2.66;71.77
75424;BME280;64005;55.160;36.002;2022-11-15T03:18:18;99673.81;;;-2.76;71.94
75424;BME280;64005;55.160;36.002;2022-11-15T03:20:46;99678.72;;;-2.67;71.67
75424;BME280;64005;55.160;36.002;2022-11-15T03:23:12;99683.06;;;-2.66;71.18
75424;BME280;64005;55.160;36.002;2022-11-15T03:25:42;99686.41;;;-2.64;71.86
75424;BME280;64005;55.160;36.002;2022-11-15T03:28:11;99673.59;;;-2.75;71.38
75424;BME280;64005;55.160;36.002;2022-11-15T03:30:39;99678.72;;;-2.67;71.37
75424;BME280;64005;55.160;36.002;2022-11-15T03:33:05;99673.00;;;-2.65;71.48
75424;BME280;64005;55.160;36.002;2022-11-15T03:35:37;99664.16;;;-2.61;71.23
75424;BME280;64005;55.160;36.002;2022-11-15T03:38:22;99677.06;;;-2.56;71.26
75424;BME280;64005;55.160;36.002;2022-11-15T03:40:59;99668.44;;;-2.53;70.83
75424;BME280;64005;55.160;36.002;2022-11-15T03:43:36;99667.72;;;-2.49;71.04
75424;BME280;64005;55.160;36.002;2022-11-15T03:46:16;99653.03;;;-2.48;71.05
75424;BME280;64005;55.160;36.002;2022-11-15T03:51:17;99634.19;;;-2.49;70.96
75424;BME280;64005;55.160;36.002;2022-11-15T03:53:44;99646.66;;;-2.42;70.95
75424;BME280;64005;55.160;36.002;2022-11-15T03:56:10;99646.75;;;-2.36;71.30
75424;BME280;64005;55.160;36.002;2022-11-15T03:58:36;99641.53;;;-2.38;71.21
75424;BME280;64005;55.160;36.002;2022-11-15T04:01:02;99641.19;;;-2.30;71.03
75424;BME280;64005;55.160;36.002;2022-11-15T04:03:28;99639.91;;;-2.27;71.30
75424;BME280;64005;55.160;36.002;2022-11-15T04:05:54;99621.06;;;-2.41;70.71
75424;BME280;64005;55.160;36.002;2022-11-15T04:08:20;99641.31;;;-2.25;71.45
75424;BME280;64005;55.160;36.002;2022-11-15T04:10:48;99642.13;;;-2.24;71.07
75424;BME280;64005;55.160;36.002;2022-11-15T04:13:14;99642.97;;;-2.24;71.07
75424;BME280;64005;55.160;36.002;2022-11-15T04:15:40;99649.00;;;-2.22;70.96
75424;BME280;64005;55.160;36.002;2022-11-15T04:18:06;99651.38;;;-2.25;70.97
75424;BME280;64005;55.160;36.002;2022-11-15T04:20:31;99647.47;;;-2.18;70.99
75424;BME280;64005;55.160;36.002;2022-11-15T04:23:22;99643.44;;;-2.15;70.76
75424;BME280;64005;55.160;36.002;2022-11-15T04:26:11;99648.66;;;-2.14;71.49
75424;BME280;64005;55.160;36.002;2022-11-15T04:28:38;99643.78;;;-2.12;71.09
75424;BME280;64005;55.160;36.002;2022-11-15T04:31:23;99648.16;;;-2.11;71.36
75424;BME280;64005;55.160;36.002;2022-11-15T04:33:49;99644.75;;;-2.06;71.20
75424;BME280;64005;55.160;36.002;2022-11-15T04:36:15;99642.81;;;-2.06;70.95
75424;BME280;64005;55.160;36.002;2022-11-15T04:38:59;99649.72;;;-2.03;70.43
75424;BME280;64005;55.160;36.002;2022-11-15T04:41:25;99641.31;;;-2.02;70.74
75424;BME280;64005;55.160;36.002;2022-11-15T04:43:51;99635.94;;;-1.96;70.74
75424;BME280;64005;55.160;36.002;2022-11-15T04:46:17;99639.28;;;-1.94;70.62
75424;BME280;64005;55.160;36.002;2022-11-15T04:48:43;99628.94;;;-1.92;70.62
75424;BME280;64005;55.160;36.002;2022-11-15T04:51:09;99628.94;;;-1.92;71.08
75424;BME280;64005;55.160;36.002;2022-11-15T04:53:34;99600.66;;;-2.15;70.65
75424;BME280;64005;55.160;36.002;2022-11-15T04:56:00;99630.28;;;-1.95;71.01
75424;BME280;64005;55.160;36.002;2022-11-15T04:58:26;99607.25;;;-1.99;70.29
75424;BME280;64005;55.160;36.002;2022-11-15T05:00:52;99623.84;;;-1.89;70.73
75424;BME280;64005;55.160;36.002;2022-11-15T05:03:18;99626.91;;;-1.85;70.61
75424;BME280;64005;55.160;36.002;2022-11-15T05:06:02;99625.00;;;-1.85;71.09
75424;BME280;64005;55.160;36.002;2022-11-15T05:08:28;99594.84;;;-2.07;70.57
75424;BME280;64005;55.160;36.002;2022-11-15T05:10:54;99625.00;;;-1.85;70.43
75424;BME280;64005;55.160;36.002;2022-11-15T05:13:20;99619.34;;;-1.83;70.73
75424;BME280;64005;55.160;36.002;2022-11-15T05:15:47;99607.59;;;-1.84;70.63
75424;BME280;64005;55.160;36.002;2022-11-15T05:18:13;99590.44;;;-1.96;70.77
75424;BME280;64005;55.160;36.002;2022-11-15T05:20:38;99610.91;;;-1.82;70.25
75424;BME280;64005;55.160;36.002;2022-11-15T05:23:04;99615.53;;;-1.82;70.48
75424;BME280;64005;55.160;36.002;2022-11-15T05:25:30;99620.25;;;-1.78;70.22
75424;BME280;64005;55.160;36.002;2022-11-15T05:27:56;99609.13;;;-1.76;70.95
75424;BME280;64005;55.160;36.002;2022-11-15T05:30:22;99608.53;;;-1.78;70.14
75424;BME280;64005;55.160;36.002;2022-11-15T05:32:48;99605.91;;;-1.73;70.57
75424;BME280;64005;55.160;36.002;2022-11-15T05:35:32;99606.16;;;-1.75;70.65
75424;BME280;64005;55.160;36.002;2022-11-15T05:38:00;99602.69;;;-1.70;70.69
75424;BME280;64005;55.160;36.002;2022-11-15T05:40:27;99592.63;;;-1.70;70.02
75424;BME280;64005;55.160;36.002;2022-11-15T05:42:54;99599.00;;;-1.64;70.26
75424;BME280;64005;55.160;36.002;2022-11-15T05:45:20;99590.06;;;-1.60;70.41
75424;BME280;64005;55.160;36.002;2022-11-15T05:47:47;99584.63;;;-1.60;69.97
75424;BME280;64005;55.160;36.002;2022-11-15T05:50:16;99588.63;;;-1.50;70.61
75424;BME280;64005;55.160;36.002;2022-11-15T05:52:45;99589.81;;;-1.46;69.73
75424;BME280;64005;55.160;36.002;2022-11-15T05:55:11;99589.06;;;-1.42;69.90
75424;BME280;64005;55.160;36.002;2022-11-15T05:57:39;99582.28;;;-1.39;69.79
75424;BME280;64005;55.160;36.002;2022-11-15T06:00:05;99585.38;;;-1.36;69.86
75424;BME280;64005;55.160;36.002;2022-11-15T06:02:31;99580.00;;;-1.31;69.60
75424;BME280;64005;55.160;36.002;2022-11-15T06:04:57;99575.47;;;-1.25;69.67
75424;BME280;64005;55.160;36.002;2022-11-15T06:07:23;99574.63;;;-1.26;70.12
75424;BME280;64005;55.160;36.002;2022-11-15T06:09:49;99583.50;;;-1.18;69.24
75424;BME280;64005;55.160;36.002;2022-11-15T06:12:14;99573.75;;;-1.14;69.56
75424;BME280;64005;55.160;36.002;2022-11-15T06:14:40;99583.94;;;-1.10;70.02
75424;BME280;64005;55.160;36.002;2022-11-15T06:17:06;99574.16;;;-1.06;69.53
75424;BME280;64005;55.160;36.002;2022-11-15T06:19:32;99590.06;;;-1.03;68.87
75424;BME280;64005;55.160;36.002;2022-11-15T06:22:00;99575.34;;;-1.02;68.80
75424;BME280;64005;55.160;36.002;2022-11-15T06:24:26;99571.94;;;-1.09;69.43
75424;BME280;64005;55.160;36.002;2022-11-15T06:26:52;99578.16;;;-0.97;69.84
75424;BME280;64005;55.160;36.002;2022-11-15T06:29:18;99570.47;;;-1.00;69.28
75424;BME280;64005;55.160;36.002;2022-11-15T06:31:44;99565.25;;;-1.01;69.27
75424;BME280;64005;55.160;36.002;2022-11-15T06:34:10;99574.66;;;-0.92;69.10
75424;BME280;64005;55.160;36.002;2022-11-15T06:36:36;99564.91;;;-0.88;69.02
75424;BME280;64005;55.160;36.002;2022-11-15T06:39:03;99569.38;;;-0.82;68.65
75424;BME280;64005;55.160;36.002;2022-11-15T06:41:29;99553.06;;;-0.77;69.03
75424;BME280;64005;55.160;36.002;2022-11-15T06:43:56;99528.66;;;-0.84;69.17
75424;BME280;64005;55.160;36.002;2022-11-15T06:46:23;99521.47;;;-0.90;69.41
75424;BME280;64005;55.160;36.002;2022-11-15T06:48:51;99542.38;;;-0.78;68.33
75424;BME280;64005;55.160;36.002;2022-11-15T06:51:17;99510.84;;;-0.86;69.08
75424;BME280;64005;55.160;36.002;2022-11-15T06:53:43;99526.25;;;-0.63;68.34
75424;BME280;64005;55.160;36.002;2022-11-15T06:56:09;99527.38;;;-0.59;69.11
75424;BME280;64005;55.160;36.002;2022-11-15T07:01:11;99522.50;;;-0.57;68.34
75424;BME280;64005;55.160;36.002;2022-11-15T07:03:40;99487.88;;;-0.73;68.29
75424;BME280;64005;55.160;36.002;2022-11-15T07:06:07;99509.44;;;-0.55;68.77
75424;BME280;64005;55.160;36.002;2022-11-15T07:08:34;99493.16;;;-0.67;68.14
75424;BME280;64005;55.160;36.002;2022-11-15T07:11:02;99517.38;;;-0.54;68.24
75424;BME280;64005;55.160;36.002;2022-11-15T07:13:30;99508.66;;;-0.51;68.13
75424;BME280;64005;55.160;36.002;2022-11-15T07:16:08;99505.94;;;-0.51;68.77
75424;BME280;64005;55.160;36.002;2022-11-15T07:18:35;99505.16;;;-0.46;68.88
75424;BME280;64005;55.160;36.002;2022-11-15T07:21:03;99487.13;;;-0.47;68.37
75424;BME280;64005;55.160;36.002;2022-11-15T07:23:29;99486.38;;;-0.43;68.07
75424;BME280;64005;55.160;36.002;2022-11-15T07:25:59;99491.66;;;-0.36;67.70
75424;BME280;64005;55.160;36.002;2022-11-15T07:28:26;99488.41;;;-0.33;67.71
75424;BME280;64005;55.160;36.002;2022-11-15T07:30:52;99482.19;;;-0.28;68.38
75424;BME280;64005;55.160;36.002;2022-11-15T07:33:18;99482.84;;;-0.21;68.02
75424;BME280;64005;55.160;36.002;2022-11-15T07:35:44;99483.06;;;-0.23;67.72
75424;BME280;64005;55.160;36.002;2022-11-15T07:38:13;99472.63;;;-0.26;67.68
75424;BME280;64005;55.160;36.002;2022-11-15T07:40:41;99480.72;;;-0.14;67.65
75424;BME280;64005;55.160;36.002;2022-11-15T07:43:08;99478.34;;;-0.06;68.34
75424;BME280;64005;55.160;36.002;2022-11-15T07:45:40;99480.88;;;0.01;67.47
75424;BME280;64005;55.160;36.002;2022-11-15T07:48:06;99476.34;;;0.07;67.36
75424;BME280;64005;55.160;36.002;2022-11-15T07:50:32;99478.34;;;0.16;67.65
75424;BME280;64005;55.160;36.002;2022-11-15T07:52:59;99480.41;;;0.31;66.55
75424;BME280;64005;55.160;36.002;2022-11-15T07:55:27;99472.84;;;0.38;67.24
75424;BME280;64005;55.160;36.002;2022-11-15T07:58:05;99466.31;;;0.44;66.83
75424;BME280;64005;55.160;36.002;2022-11-15T08:00:32;99465.25;;;0.45;66.79
75424;BME280;64005;55.160;36.002;2022-11-15T08:03:09;99465.06;;;0.57;67.22
75424;BME280;64005;55.160;36.002;2022-11-15T08:05:37;99470.38;;;0.68;66.49
75424;BME280;64005;55.160;36.002;2022-11-15T08:08:03;99449.63;;;0.72;66.47
75424;BME280;64005;55.160;36.002;2022-11-15T08:10:29;99448.25;;;0.75;67.07
75424;BME280;64005;55.160;36.002;2022-11-15T08:13:03;99449.63;;;0.72;66.83
75424;BME280;64005;55.160;36.002;2022-11-15T08:15:30;99451.47;;;0.67;67.32
75424;BME280;64005;55.160;36.002;2022-11-15T08:17:58;99448.44;;;0.63;67.68
75424;BME280;64005;55.160;36.002;2022-11-15T08:20:25;99444.34;;;0.66;67.67
75424;BME280;64005;55.160;36.002;2022-11-15T08:22:52;99435.31;;;0.65;67.34
75424;BME280;64005;55.160;36.002;2022-11-15T08:25:18;99441.34;;;0.67;67.59
75424;BME280;64005;55.160;36.002;2022-11-15T08:27:43;99439.22;;;0.74;67.50
75424;BME280;64005;55.160;36.002;2022-11-15T08:30:10;99428.56;;;0.78;67.27
75424;BME280;64005;55.160;36.002;2022-11-15T08:32:36;99429.69;;;0.82;66.90
75424;BME280;64005;55.160;36.002;2022-11-15T08:35:02;99419.88;;;0.86;66.75
75424;BME280;64005;55.160;36.002;2022-11-15T08:37:29;99407.75;;;0.77;67.55
75424;BME280;64005;55.160;36.002;2022-11-15T08:39:55;99422.31;;;0.88;67.33
75424;BME280;64005;55.160;36.002;2022-11-15T08:42:21;99420.97;;;0.85;67.62
75424;BME280;64005;55.160;36.002;2022-11-15T08:44:46;99416.56;;;0.84;66.96
75424;BME280;64005;55.160;36.002;2022-11-15T08:47:12;99403.16;;;0.88;66.78
75424;BME280;64005;55.160;36.002;2022-11-15T08:49:39;99408.72;;;0.98;67.20
75424;BME280;64005;55.160;36.002;2022-11-15T08:52:05;99393.34;;;0.92;67.17
75424;BME280;64005;55.160;36.002;2022-11-15T08:54:30;99406.50;;;0.95;67.47
75424;BME280;64005;55.160;36.002;2022-11-15T08:56:57;99401.84;;;0.95;67.24
75424;BME280;64005;55.160;36.002;2022-11-15T08:59:23;99402.69;;;0.96;67.44
75424;BME280;64005;55.160;36.002;2022-11-15T09:01:49;99394.47;;;0.96;67.67
75424;BME280;64005;55.160;36.002;2022-11-15T09:04:15;99385.66;;;0.94;67.68
75424;BME280;64005;55.160;36.002;2022-11-15T09:06:42;99390.63;;;0.97;67.13
75424;BME280;64005;55.160;36.002;2022-11-15T09:09:08;99379.09;;;0.95;67.49
75424;BME280;64005;55.160;36.002;2022-11-15T09:11:34;99385.16;;;0.97;67.39
75424;BME280;64005;55.160;36.002;2022-11-15T09:13:59;99385.16;;;0.97;67.43
75424;BME280;64005;55.160;36.002;2022-11-15T09:16:25;99379.69;;;0.97;67.40
75424;BME280;64005;55.160;36.002;2022-11-15T09:18:53;99365.16;;;0.96;67.93
75424;BME280;64005;55.160;36.002;2022-11-15T09:21:19;99364.06;;;0.97;68.21
75424;BME280;64005;55.160;36.002;2022-11-15T09:23:45;99364.34;;;1.01;67.95
75424;BME280;64005;55.160;36.002;2022-11-15T09:26:12;99364.59;;;0.94;67.46
75424;BME280;64005;55.160;36.002;2022-11-15T09:28:38;99364.56;;;0.89;68.17
75424;BME280;64005;55.160;36.002;2022-11-15T09:31:07;99364.28;;;0.86;67.60
75424;BME280;64005;55.160;36.002;2022-11-15T09:33:33;99355.47;;;0.78;68.53
75424;BME280;64005;55.160;36.002;2022-11-15T09:36:01;99363.69;;;0.78;68.49
75424;BME280;64005;55.160;36.002;2022-11-15T09:38:27;99366.19;;;0.85;67.79
75424;BME280;64005;55.160;36.002;2022-11-15T09:41:31;99352.81;;;0.94;68.31
75424;BME280;64005;55.160;36.002;2022-11-15T09:49:23;99347.91;;;0.96;68.25
75424;BME280;64005;55.160;36.002;2022-11-15T09:51:51;99346.44;;;0.83;67.94
75424;BME280;64005;55.160;36.002;2022-11-15T09:54:34;99346.72;;;0.82;67.89
75424;BME280;64005;55.160;36.002;2022-11-15T09:57:09;99340.63;;;0.74;68.33
75424;BME280;64005;55.160;36.002;2022-11-15T09:59:55;99336.81;;;0.75;68.32
75424;BME280;64005;55.160;36.002;2022-11-15T10:05:18;99270.59;;;0.36;69.17
75424;BME280;64005;55.160;36.002;2022-11-15T10:13:00;99285.25;;;0.57;69.14
75424;BME280;64005;55.160;36.002;2022-11-15T10:15:26;99319.81;;;0.73;69.01
75424;BME280;64005;55.160;36.002;2022-11-15T10:18:35;99289.28;;;0.50;69.08
75424;BME280;64005;55.160;36.002;2022-11-15T10:24:19;99310.25;;;0.71;69.16
75424;BME280;64005;55.160;36.002;2022-11-15T10:26:47;99306.38;;;0.67;69.11
75424;BME280;64005;55.160;36.002;2022-11-15T10:29:20;99303.91;;;0.65;69.33
75424;BME280;64005;55.160;36.002;2022-11-15T10:31:47;99302.53;;;0.63;69.03
75424;BME280;64005;55.160;36.002;2022-11-15T10:34:19;99298.72;;;0.69;69.01
75424;BME280;64005;55.160;36.002;2022-11-15T10:36:53;99293.25;;;0.69;68.85
75424;BME280;64005;55.160;36.002;2022-11-15T10:39:19;99286.09;;;0.63;69.18
75424;BME280;64005;55.160;36.002;2022-11-15T10:41:45;99286.31;;;0.56;69.75
75424;BME280;64005;55.160;36.002;2022-11-15T10:47:03;99284.19;;;0.63;69.30
75424;BME280;64005;55.160;36.002;2022-11-15T10:49:32;99279.50;;;0.59;69.52
75424;BME280;64005;55.160;36.002;2022-11-15T10:52:12;99275.13;;;0.58;70.07
75424;BME280;64005;55.160;36.002;2022-11-15T10:54:50;99274.28;;;0.52;69.62
75424;BME280;64005;55.160;36.002;2022-11-15T10:57:20;99264.66;;;0.50;69.96
75424;BME280;64005;55.160;36.002;2022-11-15T10:59:56;99265.00;;;0.58;69.66
75424;BME280;64005;55.160;36.002;2022-11-15T11:02:38;99263.59;;;0.56;69.44
75424;BME280;64005;55.160;36.002;2022-11-15T11:05:29;99251.81;;;0.50;69.45
75424;BME280;64005;55.160;36.002;2022-11-15T11:07:58;99261.06;;;0.39;70.15
75424;BME280;64005;55.160;36.002;2022-11-15T11:10:24;99253.09;;;0.37;69.94
75424;BME280;64005;55.160;36.002;2022-11-15T11:12:50;99199.50;;;-0.01;69.84
75424;BME280;64005;55.160;36.002;2022-11-15T11:15:17;99220.94;;;0.13;69.94
75424;BME280;64005;55.160;36.002;2022-11-15T11:17:57;99248.13;;;0.34;70.54
75424;BME280;64005;55.160;36.002;2022-11-15T11:21:02;99238.81;;;0.30;70.37
75424;BME280;64005;55.160;36.002;2022-11-15T11:23:51;99215.13;;;0.09;70.91
75424;BME280;64005;55.160;36.002;2022-11-15T11:26:33;99236.28;;;0.19;71.11
75424;BME280;64005;55.160;36.002;2022-11-15T11:32:07;99224.13;;;-0.01;71.00
75424;BME280;64005;55.160;36.002;2022-11-15T11:34:58;99220.34;;;0.06;71.49
75424;BME280;64005;55.160;36.002;2022-11-15T11:38:28;99214.28;;;0.04;71.47
75424;BME280;64005;55.160;36.002;2022-11-15T11:40:37;99195.06;;;-0.07;70.92
75424;BME280;64005;55.160;36.002;2022-11-15T11:43:30;99200.00;;;-0.04;70.90
75424;BME280;64005;55.160;36.002;2022-11-15T11:49:15;99158.00;;;-0.29;71.38
75424;BME280;64005;55.160;36.002;2022-11-15T11:51:46;99182.75;;;-0.09;71.80
75424;BME280;64005;55.160;36.002;2022-11-15T11:54:25;99176.34;;;-0.25;72.26
75424;BME280;64005;55.160;36.002;2022-11-15T11:56:58;99174.44;;;-0.24;72.03
75424;BME280;64005;55.160;36.002;2022-11-15T11:59:44;99157.19;;;-0.25;72.48
75424;BME280;64005;55.160;36.002;2022-11-15T12:02:39;99162.16;;;-0.22;72.46
75424;BME280;64005;55.160;36.002;2022-11-15T12:05:20;99155.63;;;-0.21;72.41
75424;BME280;64005;55.160;36.002;2022-11-15T12:07:49;99152.56;;;-0.24;72.36
75424;BME280;64005;55.160;36.002;2022-11-15T12:10:23;99145.72;;;-0.27;72.51
75424;BME280;64005;55.160;36.002;2022-11-15T12:13:11;99146.81;;;-0.28;72.20
75424;BME280;64005;55.160;36.002;2022-11-15T12:15:53;99140.72;;;-0.40;73.13
75424;BME280;64005;55.160;36.002;2022-11-15T12:18:22;99130.31;;;-0.38;72.27
75424;BME280;64005;55.160;36.002;2022-11-15T12:21:03;99125.72;;;-0.32;71.93
75424;BME280;64005;55.160;36.002;2022-11-15T12:23:48;99122.97;;;-0.32;72.35
75424;BME280;64005;55.160;36.002;2022-11-15T12:26:22;99119.41;;;-0.33;72.16
75424;BME280;64005;55.160;36.002;2022-11-15T12:29:02;99105.72;;;-0.38;72.35
75424;BME280;64005;55.160;36.002;2022-11-15T12:36:46;99090.34;;;-0.49;73.32
75424;BME280;64005;55.160;36.002;2022-11-15T12:39:13;99103.22;;;-0.45;73.02
75424;BME280;64005;55.160;36.002;2022-11-15T12:41:41;99097.22;;;-0.47;73.36
75424;BME280;64005;55.160;36.002;2022-11-15T12:49:50;99080.22;;;-0.54;72.78
75424;BME280;64005;55.160;36.002;2022-11-15T12:52:17;99079.41;;;-0.49;73.42
75424;BME280;64005;55.160;36.002;2022-11-15T12:54:52;99072.34;;;-0.45;73.00
75424;BME280;64005;55.160;36.002;2022-11-15T12:59:57;99070.97;;;-0.48;73.36
75424;BME280;64005;55.160;36.002;2022-11-15T13:02:40;99063.53;;;-0.52;73.79
75424;BME280;64005;55.160;36.002;2022-11-15T13:13:08;99062.34;;;-0.66;73.09
75424;BME280;64005;55.160;36.002;2022-11-15T13:15:36;99048.66;;;-0.71;74.29
75424;BME280;64005;55.160;36.002;2022-11-15T13:20:45;99047.19;;;-0.84;74.70
75424;BME280;64005;55.160;36.002;2022-11-15T13:23:16;99029.44;;;-0.87;74.38
75424;BME280;64005;55.160;36.002;2022-11-15T13:28:38;99006.44;;;-0.96;74.53
75424;BME280;64005;55.160;36.002;2022-11-15T13:33:45;99007.47;;;-1.02;74.82
75424;BME280;64005;55.160;36.002;2022-11-15T13:36:37;99005.00;;;-1.03;73.97
75424;BME280;64005;55.160;36.002;2022-11-15T13:39:05;99016.72;;;-1.08;74.76
75424;BME280;64005;55.160;36.002;2022-11-15T13:41:35;99000.84;;;-1.11;75.33
75424;BME280;64005;55.160;36.002;2022-11-15T13:44:03;99000.56;;;-1.14;74.70
75424;BME280;64005;55.160;36.002;2022-11-15T13:46:31;99003.00;;;-1.13;74.56
75424;BME280;64005;55.160;36.002;2022-11-15T13:49:18;98998.06;;;-1.16;74.71
75424;BME280;64005;55.160;36.002;2022-11-15T13:51:54;98991.78;;;-1.16;75.21
75424;BME280;64005;55.160;36.002;2022-11-15T13:54:29;98995.69;;;-1.07;74.49
75424;BME280;64005;55.160;36.002;2022-11-15T13:57:08;98966.41;;;-1.17;74.71
75424;BME280;64005;55.160;36.002;2022-11-15T13:59:53;98989.72;;;-0.99;74.62
75424;BME280;64005;55.160;36.002;2022-11-15T14:02:32;98992.16;;;-1.03;73.95
75424;BME280;64005;55.160;36.002;2022-11-15T14:05:18;98983.41;;;-1.05;74.36
75424;BME280;64005;55.160;36.002;2022-11-15T14:08:03;98982.03;;;-1.07;74.66
75424;BME280;64005;55.160;36.002;2022-11-15T14:10:32;98983.66;;;-1.06;74.98
75424;BME280;64005;55.160;36.002;2022-11-15T14:13:00;98996.00;;;-0.99;74.50
75424;BME280;64005;55.160;36.002;2022-11-15T14:15:27;98991.13;;;-0.97;74.93
75424;BME280;64005;55.160;36.002;2022-11-15T14:17:54;98984.03;;;-0.93;74.43
75424;BME280;64005;55.160;36.002;2022-11-15T14:20:38;98984.34;;;-0.89;74.72
75424;BME280;64005;55.160;36.002;2022-11-15T14:25:52;98966.03;;;-0.94;74.70
75424;BME280;64005;55.160;36.002;2022-11-15T14:30:49;98955.94;;;-0.93;74.50
75424;BME280;64005;55.160;36.002;2022-11-15T14:33:24;98961.94;;;-0.91;74.96
75424;BME280;64005;55.160;36.002;2022-11-15T14:35:51;98954.31;;;-0.89;75.18
75424;BME280;64005;55.160;36.002;2022-11-15T14:38:17;98951.59;;;-0.89;74.33